Time;durP1;ratioP1;P1;durP2;ratioP2;P2;SDS_P1;SDS_P2;PMS_P1;PMS_P2;Temp;Humidity;BMP_temperature;BMP_pressure;BME280_temperature;BME280_humidity;BME280_pressure;Samples;Min_cycle;Max_cycle;Signal;HPM_P1;HPM_P2
2022/08/21 00:00:56;;;;;;;6.93;5.80;;;;;;;21.44;95.70;94131.69;5089133;28;20193;-79
2022/08/21 00:03:23;;;;;;;8.80;6.20;;;;;;;21.33;95.87;94116.78;5088914;28;20213;-79
2022/08/21 00:05:51;;;;;;;16.50;6.88;;;;;;;21.24;95.99;94116.25;5089111;28;20303;-80
2022/08/21 00:08:19;;;;;;;9.03;6.47;;;;;;;21.09;96.20;94093.22;5088628;28;20245;-78
2022/08/21 00:10:47;;;;;;;12.55;6.75;;;;;;;21.29;96.18;94119.81;5089165;28;20208;-80
2022/08/21 00:13:14;;;;;;;11.82;6.70;;;;;;;21.25;96.28;94110.84;5088955;28;20677;-79
2022/08/21 00:15:42;;;;;;;11.32;6.95;;;;;;;21.31;95.56;94111.78;5089201;28;20197;-79
2022/08/21 00:18:11;;;;;;;10.48;6.40;;;;;;;21.27;96.55;94103.63;5089313;28;20197;-79
2022/08/21 00:20:39;;;;;;;10.27;7.63;;;;;;;21.26;97.37;94114.25;5088126;28;20193;-79
2022/08/21 00:23:06;;;;;;;9.70;7.70;;;;;;;21.22;98.25;94106.09;5089096;28;20661;-80
2022/08/21 00:25:34;;;;;;;10.38;7.47;;;;;;;21.23;98.32;94097.25;5088819;28;20200;-80
2022/08/21 00:28:01;;;;;;;8.50;6.65;;;;;;;21.10;98.88;94075.81;5088904;28;20209;-80
2022/08/21 00:30:29;;;;;;;10.38;7.03;;;;;;;21.03;98.85;94065.50;5088738;28;20190;-80
2022/08/21 00:32:58;;;;;;;13.45;8.32;;;;;;;21.20;98.78;94089.09;5088839;28;20284;-79
2022/08/21 00:35:29;;;;;;;15.32;8.00;;;;;;;21.16;99.18;94093.16;5088304;28;20190;-80
2022/08/21 00:37:57;;;;;;;10.88;8.00;;;;;;;21.19;98.48;94100.50;5088731;28;20205;-79
2022/08/21 00:40:28;;;;;;;7.97;6.93;;;;;;;21.19;97.99;94098.72;5088617;28;20198;-79
2022/08/21 00:42:55;;;;;;;10.65;6.82;;;;;;;21.17;98.25;94100.75;5088733;28;20649;-79
2022/08/21 00:45:22;;;;;;;13.45;7.78;;;;;;;21.16;98.80;94095.78;5089054;28;20588;-79
2022/08/21 00:47:49;;;;;;;8.88;6.72;;;;;;;21.15;98.48;94104.56;5090459;28;20200;-78
2022/08/21 00:50:16;;;;;;;7.67;6.70;;;;;;;21.15;98.41;94104.56;5089415;28;20193;-78
2022/08/21 00:52:45;;;;;;;12.15;5.72;;;;;;;21.14;98.53;94106.38;5088837;28;20189;-78
2022/08/21 00:55:13;;;;;;;7.25;6.05;;;;;;;20.97;98.46;94071.56;5091498;28;20217;-80
2022/08/21 00:57:46;;;;;;;10.18;5.63;;;;;;;20.93;98.43;94060.81;5092007;28;20289;-79
2022/08/21 01:00:17;;;;;;;9.10;5.83;;;;;;;21.18;98.49;94101.53;5091798;28;20542;-79
2022/08/21 01:02:45;;;;;;;12.55;5.63;;;;;;;21.18;99.04;94097.13;5092218;28;20181;-79
2022/08/21 01:05:13;;;;;;;8.23;5.70;;;;;;;21.12;98.59;94079.81;5091760;28;20225;-80
2022/08/21 01:07:41;;;;;;;10.65;6.03;;;;;;;21.24;98.21;94093.66;5091954;28;20182;-79
2022/08/21 01:10:10;;;;;;;8.82;6.18;;;;;;;21.19;98.35;94093.50;5091867;28;20576;-79
2022/08/21 01:12:37;;;;;;;8.63;6.10;;;;;;;21.25;97.97;94087.44;5091927;28;20194;-80
2022/08/21 01:15:07;;;;;;;9.30;5.97;;;;;;;21.24;98.39;94079.84;5091773;28;20225;-81
2022/08/21 01:17:35;;;;;;;7.32;5.68;;;;;;;21.24;98.78;94077.25;5091703;28;20193;-80
2022/08/21 01:20:07;;;;;;;8.47;6.57;;;;;;;21.24;98.23;94075.47;5091850;28;20197;-80
2022/08/21 01:22:35;;;;;;;7.72;6.15;;;;;;;21.19;98.29;94061.50;5091635;28;20193;-81
2022/08/21 01:25:02;;;;;;;6.33;5.63;;;;;;;21.10;98.47;94055.81;5091948;28;20200;-80
2022/08/21 01:27:29;;;;;;;8.65;5.68;;;;;;;21.26;98.33;94078.63;5091578;28;20193;-79
2022/08/21 01:30:00;;;;;;;7.60;5.65;;;;;;;21.29;98.05;94073.00;5091503;28;20185;-80
2022/08/21 01:32:30;;;;;;;9.50;5.87;;;;;;;21.24;98.40;94062.47;5091376;28;20277;-80
2022/08/21 01:34:57;;;;;;;8.17;6.20;;;;;;;21.22;98.51;94067.06;5091325;28;20234;-80
2022/08/21 01:37:24;;;;;;;12.93;6.27;;;;;;;21.24;98.14;94072.03;5091685;28;20564;-80
2022/08/21 01:39:53;;;;;;;10.20;5.97;;;;;;;21.21;97.79;94081.09;5091385;28;20689;-79
2022/08/21 01:42:20;;;;;;;9.07;6.25;;;;;;;21.21;97.98;94080.31;5091075;28;20232;-79
2022/08/21 01:44:47;;;;;;;11.63;6.00;;;;;;;21.15;98.67;94075.97;5091261;28;20236;-80
2022/08/21 01:47:16;;;;;;;6.72;5.75;;;;;;;21.20;98.62;94078.69;5091240;28;20710;-79
2022/08/21 01:49:44;;;;;;;6.72;4.88;;;;;;;21.22;97.53;94084.47;5091626;28;20194;-79
2022/08/21 01:52:11;;;;;;;6.80;4.82;;;;;;;21.21;96.65;94085.50;5090982;28;20196;-80
2022/08/21 01:54:39;;;;;;;8.68;4.80;;;;;;;21.22;97.18;94077.47;5091155;28;20275;-79
2022/08/21 01:57:08;;;;;;;10.25;5.20;;;;;;;21.15;96.57;94071.53;5091054;28;20197;-79
2022/08/21 01:59:35;;;;;;;6.68;4.65;;;;;;;21.13;97.17;94078.78;5091459;28;20182;-79
2022/08/21 02:02:03;;;;;;;7.05;4.40;;;;;;;21.03;96.79;94079.31;5091251;28;20193;-79
2022/08/21 02:04:30;;;;;;;5.13;4.22;;;;;;;21.08;96.87;94090.84;5091017;28;20783;-78
2022/08/21 02:06:57;;;;;;;8.55;4.10;;;;;;;21.07;96.96;94086.66;5090069;28;20244;-78
2022/08/21 02:09:24;;;;;;;6.40;5.13;;;;;;;21.07;97.24;94092.66;5090914;28;20292;-78
2022/08/21 02:11:51;;;;;;;8.55;6.10;;;;;;;21.03;96.42;94094.91;5090529;28;20212;-78
2022/08/21 02:14:20;;;;;;;8.05;7.07;;;;;;;20.97;96.99;94087.94;5090533;28;20217;-78
2022/08/21 02:16:47;;;;;;;8.57;7.77;;;;;;;21.01;95.99;94077.91;5091010;28;20292;-79
2022/08/21 02:19:16;;;;;;;9.67;7.40;;;;;;;21.00;96.77;94090.13;5090598;28;20853;-80
2022/08/21 02:21:44;;;;;;;11.40;7.70;;;;;;;20.96;97.33;94098.56;5090992;28;20190;-79
2022/08/21 02:24:12;;;;;;;10.10;7.65;;;;;;;20.89;96.73;94072.63;5090800;28;20626;-80
2022/08/21 02:26:39;;;;;;;10.07;7.43;;;;;;;20.94;96.97;94087.59;5090393;28;20262;-79
2022/08/21 02:29:06;;;;;;;9.13;7.27;;;;;;;20.84;97.51;94072.50;5090235;28;20189;-80
2022/08/21 02:31:35;;;;;;;14.00;8.25;;;;;;;20.94;97.82;94096.19;5090411;28;20288;-80
2022/08/21 02:34:02;;;;;;;12.87;9.10;;;;;;;20.93;98.44;94107.59;5090145;28;20232;-80
2022/08/21 02:36:28;;;;;;;15.05;9.68;;;;;;;20.91;98.47;94095.84;5090505;28;20197;-78
2022/08/21 02:38:56;;;;;;;9.93;8.40;;;;;;;20.89;98.75;94096.03;5089746;28;20621;-78
2022/08/21 02:41:23;;;;;;;10.77;8.05;;;;;;;20.91;98.82;94101.81;5090635;28;20573;-78
2022/08/21 02:43:51;;;;;;;13.98;8.35;;;;;;;20.92;98.77;94098.22;5090035;28;20222;-79
2022/08/21 02:46:20;;;;;;;10.95;8.93;;;;;;;20.92;99.17;94103.41;5090082;28;20193;-79
2022/08/21 02:48:49;;;;;;;9.40;8.00;;;;;;;20.65;99.02;94065.72;5090084;28;20200;-79
2022/08/21 02:51:18;;;;;;;12.43;8.60;;;;;;;20.82;98.41;94082.31;5089753;28;20189;-81
2022/08/21 02:53:46;;;;;;;12.63;9.32;;;;;;;20.97;98.02;94090.56;5089789;28;20197;-80
2022/08/21 02:56:16;;;;;;;13.43;9.45;;;;;;;20.99;97.83;94093.75;5089708;28;20186;-79
2022/08/21 02:58:45;;;;;;;10.70;9.60;;;;;;;21.01;97.76;94094.31;5089967;28;20190;-82
2022/08/21 03:01:13;;;;;;;12.95;9.48;;;;;;;21.01;97.65;94096.91;5089634;28;20186;-79
2022/08/21 03:03:41;;;;;;;15.73;9.23;;;;;;;20.99;98.18;94104.16;5090165;28;20189;-79
2022/08/21 03:06:11;;;;;;;10.10;8.65;;;;;;;21.00;98.10;94099.72;5089617;28;20233;-79
2022/08/21 03:08:40;;;;;;;15.50;8.87;;;;;;;20.99;97.87;94108.56;5089703;28;20200;-80
2022/08/21 03:11:07;;;;;;;13.70;8.40;;;;;;;21.01;98.09;94099.50;5089751;28;20185;-80
2022/08/21 03:13:34;;;;;;;9.03;7.90;;;;;;;21.04;98.15;94095.69;5089892;28;20181;-79
2022/08/21 03:16:01;;;;;;;11.18;7.72;;;;;;;21.00;97.99;94092.72;5089539;28;20295;-80
2022/08/21 03:18:28;;;;;;;14.40;8.18;;;;;;;20.96;97.56;94085.56;5089651;28;20672;-79
2022/08/21 03:20:55;;;;;;;14.53;7.27;;;;;;;21.04;97.28;94093.88;5089703;28;20667;-81
2022/08/21 03:23:23;;;;;;;7.43;6.50;;;;;;;21.05;97.15;94105.06;5089380;28;20177;-81
2022/08/21 03:25:51;;;;;;;10.67;6.70;;;;;;;21.07;96.72;94103.06;5089280;28;20217;-81
2022/08/21 03:28:21;;;;;;;12.52;6.60;;;;;;;21.05;97.46;94100.66;5089750;28;20207;-79
2022/08/21 03:30:51;;;;;;;10.87;6.53;;;;;;;21.06;96.98;94101.47;5089636;28;20182;-81
2022/08/21 03:33:18;;;;;;;9.43;6.97;;;;;;;21.06;97.61;94096.25;5090069;28;20272;-80
2022/08/21 03:35:48;;;;;;;12.88;8.90;;;;;;;20.93;97.99;94081.59;5089551;28;20205;-80
2022/08/21 03:38:15;;;;;;;11.13;8.98;;;;;;;21.04;97.99;94091.28;5089742;28;20197;-79
2022/08/21 03:40:44;;;;;;;14.25;9.18;;;;;;;21.00;98.12;94084.94;5089377;28;20189;-79
2022/08/21 03:43:11;;;;;;;13.77;9.23;;;;;;;20.88;98.13;94071.06;5089254;28;20193;-80
2022/08/21 03:45:39;;;;;;;10.73;8.60;;;;;;;21.01;98.50;94080.53;5089865;28;20188;-80
2022/08/21 03:48:07;;;;;;;8.93;7.82;;;;;;;21.01;98.15;94098.72;5088925;28;20509;-79
2022/08/21 03:50:38;;;;;;;12.02;9.10;;;;;;;20.98;99.15;94093.94;5089149;28;20182;-80
2022/08/21 03:53:05;;;;;;;15.15;9.35;;;;;;;20.97;98.91;94095.75;5089290;28;20186;-80
2022/08/21 03:55:32;;;;;;;10.48;8.73;;;;;;;20.99;98.98;94111.16;5089124;28;20311;-79
2022/08/21 03:58:01;;;;;;;13.37;10.40;;;;;;;21.00;99.01;94108.31;5088605;28;20193;-79
2022/08/21 04:00:28;;;;;;;13.10;10.53;;;;;;;21.00;99.45;94112.72;5089261;28;20615;-80
2022/08/21 04:02:55;;;;;;;15.90;10.32;;;;;;;20.99;99.74;94114.53;5089054;28;20557;-80
2022/08/21 04:05:27;;;;;;;17.63;11.90;;;;;;;20.90;99.72;94096.84;5088999;28;20236;-79
2022/08/21 04:07:56;;;;;;;19.15;14.25;;;;;;;21.13;99.07;94115.19;5088840;28;20517;-79
2022/08/21 04:10:24;;;;;;;18.58;12.02;;;;;;;20.98;97.19;94081.75;5089029;28;20197;-80
2022/08/21 04:12:51;;;;;;;17.63;12.57;;;;;;;21.10;96.87;94112.22;5088676;28;20204;-79
2022/08/21 04:15:21;;;;;;;17.00;11.48;;;;;;;21.16;96.55;94121.78;5089031;28;20222;-79
2022/08/21 04:17:49;;;;;;;16.63;11.07;;;;;;;20.98;96.72;94102.56;5089020;28;20213;-79
2022/08/21 04:20:16;;;;;;;17.20;11.37;;;;;;;20.97;97.16;94108.75;5089171;28;20277;-79
2022/08/21 04:22:44;;;;;;;13.80;9.90;;;;;;;20.92;96.74;94094.81;5088724;28;20633;-79
2022/08/21 04:25:12;;;;;;;13.80;9.20;;;;;;;20.99;96.89;94105.94;5089097;28;20197;-79
2022/08/21 04:27:39;;;;;;;15.20;9.83;;;;;;;20.92;97.52;94110.41;5088672;28;20216;-79
2022/08/21 04:30:08;;;;;;;11.90;8.63;;;;;;;20.98;96.88;94109.53;5092622;28;20264;-79
2022/08/21 04:32:37;;;;;;;20.30;9.10;;;;;;;20.94;97.04;94117.00;5092633;28;20235;-78
2022/08/21 04:35:08;;;;;;;10.43;7.07;;;;;;;20.32;96.75;94027.81;5092693;28;20229;-79
2022/08/21 04:37:36;;;;;;;14.35;7.07;;;;;;;20.72;96.38;94085.41;5092839;28;20197;-79
2022/08/21 04:40:03;;;;;;;16.50;4.93;;;;;;;20.93;95.31;94115.38;5092363;28;20201;-79
2022/08/21 04:42:30;;;;;;;10.55;5.68;;;;;;;20.97;94.54;94116.53;5092983;28;20635;-79
2022/08/21 04:44:57;;;;;;;6.67;4.83;;;;;;;20.99;94.23;94111.16;5092661;28;20197;-80
2022/08/21 04:47:25;;;;;;;12.45;5.78;;;;;;;20.87;94.73;94111.06;5092212;28;20279;-80
2022/08/21 04:49:53;;;;;;;7.30;5.32;;;;;;;20.81;95.11;94104.09;5092697;28;20190;-80
2022/08/21 04:52:23;;;;;;;9.18;5.78;;;;;;;20.61;95.55;94060.16;5092701;28;20190;-80
2022/08/21 04:54:51;;;;;;;9.52;5.80;;;;;;;20.51;95.54;94037.25;5092102;28;20218;-79
2022/08/21 04:57:19;;;;;;;8.40;5.57;;;;;;;20.95;95.24;94095.19;5092369;28;20692;-81
2022/08/21 04:59:49;;;;;;;8.07;6.07;;;;;;;21.17;95.02;94105.16;5092096;28;20193;-81
2022/08/21 05:02:16;;;;;;;10.77;5.82;;;;;;;21.03;94.55;94065.50;5092486;28;20277;-81
2022/08/21 05:04:48;;;;;;;7.63;6.50;;;;;;;21.22;94.60;94085.28;5092327;28;20225;-81
2022/08/21 05:07:21;;;;;;;7.88;6.45;;;;;;;21.31;94.09;94080.56;5092208;28;20641;-80
2022/08/21 05:09:49;;;;;;;12.15;6.30;;;;;;;21.58;93.61;94116.69;5092286;28;20715;-80
2022/08/21 05:12:16;;;;;;;14.32;6.63;;;;;;;21.68;93.28;94122.19;5092540;28;20197;-80
2022/08/21 05:14:43;;;;;;;7.22;5.63;;;;;;;21.79;92.76;94121.41;5091765;28;20194;-80
2022/08/21 05:17:10;;;;;;;9.55;6.05;;;;;;;21.69;92.29;94089.94;5092734;28;20185;-81
2022/08/21 05:19:38;;;;;;;10.43;5.72;;;;;;;21.94;92.04;94126.25;5092135;28;20190;-80
2022/08/21 05:22:05;;;;;;;12.95;6.18;;;;;;;21.99;91.68;94126.38;5092530;28;20181;-81
2022/08/21 05:24:33;;;;;;;14.10;6.18;;;;;;;22.01;90.91;94119.13;5091590;28;20197;-81
2022/08/21 05:27:00;;;;;;;13.18;5.50;;;;;;;21.87;91.31;94102.09;5091572;28;20602;-80
2022/08/21 05:29:31;;;;;;;11.35;5.57;;;;;;;21.99;90.96;94124.56;5091948;28;20185;-80
2022/08/21 05:31:57;;;;;;;9.25;5.68;;;;;;;22.00;90.91;94118.31;5091687;28;20857;-79
2022/08/21 05:34:25;;;;;;;12.82;5.78;;;;;;;22.01;91.76;94119.13;5091610;28;20194;-79
2022/08/21 05:36:52;;;;;;;11.70;6.60;;;;;;;22.04;92.38;94111.66;5091296;28;20234;-79
2022/08/21 05:39:18;;;;;;;7.13;5.60;;;;;;;22.14;92.48;94107.75;5091503;28;20954;-78
2022/08/21 05:41:47;;;;;;;10.68;5.13;;;;;;;22.10;91.98;94102.16;5089958;28;20637;-80
2022/08/21 05:44:14;;;;;;;11.75;7.15;;;;;;;21.92;91.79;94065.78;5091286;28;20998;-80
2022/08/21 05:46:41;;;;;;;10.77;5.97;;;;;;;22.17;91.61;94100.28;5091362;28;20298;-81
2022/08/21 05:49:08;;;;;;;12.27;6.38;;;;;;;22.21;90.78;94105.84;5090815;28;20197;-80
2022/08/21 05:51:35;;;;;;;9.57;6.20;;;;;;;22.13;91.17;94098.34;5091140;28;20197;-80
2022/08/21 05:54:02;;;;;;;10.65;6.18;;;;;;;22.13;91.03;94098.34;5091648;28;20280;-80
2022/08/21 05:56:29;;;;;;;15.90;7.20;;;;;;;22.10;91.79;94096.94;5091182;28;20707;-80
2022/08/21 05:58:57;;;;;;;12.35;6.85;;;;;;;22.13;91.21;94104.34;5091340;28;20645;-79
2022/08/21 06:01:25;;;;;;;12.20;7.13;;;;;;;22.15;90.49;94110.16;5091587;28;20186;-79
2022/08/21 06:03:52;;;;;;;10.00;7.40;;;;;;;22.10;90.89;94103.97;5090785;28;20185;-79
2022/08/21 06:06:19;;;;;;;11.88;6.72;;;;;;;22.09;91.07;94111.00;5091180;28;20189;-79
2022/08/21 06:08:46;;;;;;;9.68;6.32;;;;;;;22.10;91.61;94104.75;5091962;28;20186;-80
2022/08/21 06:11:13;;;;;;;8.60;6.88;;;;;;;22.10;91.81;94109.97;5090967;28;20193;-79
2022/08/21 06:13:41;;;;;;;12.80;6.50;;;;;;;22.25;90.79;94109.59;5090636;28;20207;-80
2022/08/21 06:16:12;;;;;;;10.48;6.65;;;;;;;22.33;90.39;94098.06;5090609;28;20226;-81
2022/08/21 06:18:40;;;;;;;12.15;6.90;;;;;;;22.41;89.46;94108.94;5090806;28;20201;-82
2022/08/21 06:21:07;;;;;;;9.77;6.93;;;;;;;22.25;89.18;94083.53;5090824;28;20191;-81
2022/08/21 06:23:36;;;;;;;12.80;6.38;;;;;;;22.18;88.56;94075.03;5090227;28;20198;-81
2022/08/21 06:26:04;;;;;;;11.15;6.72;;;;;;;22.38;88.96;94106.78;5091131;28;20194;-79
2022/08/21 06:28:31;;;;;;;7.90;6.35;;;;;;;22.27;89.37;94082.28;5090315;28;20267;-80
2022/08/21 06:30:58;;;;;;;11.23;7.80;;;;;;;22.41;90.27;94106.34;5090390;28;20182;-79
2022/08/21 06:33:27;;;;;;;9.95;6.55;;;;;;;22.14;90.30;94066.06;5090330;28;20261;-79
2022/08/21 06:35:54;;;;;;;9.85;6.72;;;;;;;22.32;90.80;94092.03;5090337;28;20228;-81
2022/08/21 06:38:21;;;;;;;8.10;7.22;;;;;;;22.56;88.42;94110.31;5090097;28;20193;-80
2022/08/21 06:40:48;;;;;;;9.93;7.28;;;;;;;22.49;88.50;94113.00;5090368;28;20288;-80
2022/08/21 06:43:17;;;;;;;10.80;7.35;;;;;;;22.48;89.29;94112.22;5089975;28;20182;-81
2022/08/21 06:45:45;;;;;;;10.52;6.43;;;;;;;22.50;90.10;94112.78;5090591;28;20216;-81
2022/08/21 06:48:12;;;;;;;9.90;6.60;;;;;;;22.59;89.99;94108.03;5089992;28;20185;-80
2022/08/21 06:50:40;;;;;;;14.70;8.43;;;;;;;22.66;89.16;94103.50;5089854;28;20277;-81
2022/08/21 06:53:09;;;;;;;15.60;8.00;;;;;;;22.69;88.80;94102.25;5089955;28;20777;-83
2022/08/21 06:55:37;;;;;;;13.07;7.40;;;;;;;22.77;89.87;94109.75;5089981;28;20262;-81
2022/08/21 06:58:04;;;;;;;11.82;7.72;;;;;;;22.83;89.31;94116.66;5089769;28;20656;-80
2022/08/21 07:00:32;;;;;;;10.75;8.25;;;;;;;22.88;88.73;94116.75;5089972;28;20689;-82
2022/08/21 07:02:59;;;;;;;10.02;8.52;;;;;;;22.92;87.97;94124.94;5090006;28;20189;-80
2022/08/21 07:05:26;;;;;;;10.52;8.73;;;;;;;22.98;87.43;94122.22;5089717;28;20230;-80
2022/08/21 07:07:55;;;;;;;12.02;8.40;;;;;;;23.01;87.48;94120.97;5090046;28;20625;-82
2022/08/21 07:10:21;;;;;;;12.65;8.68;;;;;;;23.02;86.85;94106.94;5089301;28;20200;-80
2022/08/21 07:12:49;;;;;;;12.43;8.63;;;;;;;23.07;85.93;94121.88;5089940;28;20205;-82
2022/08/21 07:15:15;;;;;;;13.70;9.95;;;;;;;23.02;87.25;94122.56;5089631;28;20212;-81
2022/08/21 07:17:42;;;;;;;14.05;9.23;;;;;;;22.97;87.43;94117.22;5089908;28;20193;-80
2022/08/21 07:20:10;;;;;;;9.60;8.55;;;;;;;23.00;87.01;94127.22;5089456;28;20189;-79
2022/08/21 07:22:38;;;;;;;13.77;8.90;;;;;;;22.74;86.14;94087.50;5089799;28;20189;-80
2022/08/21 07:25:10;;;;;;;11.95;7.80;;;;;;;23.10;85.77;94126.63;5089454;28;20293;-79
2022/08/21 07:27:37;;;;;;;12.55;7.45;;;;;;;23.13;86.05;94115.75;5089499;28;20200;-81
2022/08/21 07:30:06;;;;;;;9.55;6.68;;;;;;;23.15;85.99;94114.50;5089341;28;20657;-81
2022/08/21 07:32:33;;;;;;;15.48;11.23;;;;;;;23.29;83.60;94118.44;5089567;28;20640;-80
2022/08/21 07:35:00;;;;;;;13.82;9.48;;;;;;;23.21;84.66;94107.56;5089299;28;20182;-81
2022/08/21 07:37:27;;;;;;;10.05;7.55;;;;;;;23.24;84.97;94107.13;5088771;28;20216;-79
2022/08/21 07:39:54;;;;;;;12.48;8.63;;;;;;;23.27;83.38;94106.63;5089341;28;20215;-80
2022/08/21 07:42:22;;;;;;;8.82;6.45;;;;;;;23.32;83.39;94108.56;5090453;28;20200;-80
2022/08/21 07:44:49;;;;;;;14.30;7.95;;;;;;;23.39;82.77;94106.63;5090380;28;20221;-80
2022/08/21 07:47:16;;;;;;;10.82;8.35;;;;;;;23.39;82.76;94098.78;5089026;28;20572;-80
2022/08/21 07:49:43;;;;;;;12.48;7.22;;;;;;;23.52;83.04;94101.91;5089656;28;20192;-80
2022/08/21 07:52:10;;;;;;;9.98;7.00;;;;;;;23.67;83.08;94106.69;5088810;28;20193;-80
2022/08/21 07:54:36;;;;;;;10.68;7.32;;;;;;;23.92;81.77;94097.69;5088983;28;20189;-79
2022/08/21 07:57:04;;;;;;;13.77;8.30;;;;;;;24.18;82.06;94091.91;5088902;28;20221;-79
2022/08/21 07:59:32;;;;;;;12.57;8.35;;;;;;;24.28;79.51;94099.88;5089329;28;20239;-78
2022/08/21 08:01:59;;;;;;;10.23;7.63;;;;;;;24.52;78.02;94097.94;5088838;28;20283;-79
2022/08/21 08:04:26;;;;;;;9.23;6.20;;;;;;;24.76;78.49;94103.78;5091409;28;20229;-79
2022/08/21 08:06:53;;;;;;;12.23;6.65;;;;;;;24.76;75.39;94090.69;5092997;28;20679;-80
2022/08/21 08:09:20;;;;;;;9.63;6.80;;;;;;;24.98;73.50;94103.03;5093026;28;20258;-80
2022/08/21 08:11:47;;;;;;;9.82;6.60;;;;;;;24.85;72.02;94100.75;5093176;28;20182;-80
2022/08/21 08:14:15;;;;;;;8.90;5.93;;;;;;;25.00;73.68;94093.91;5092718;28;20674;-80
2022/08/21 08:16:43;;;;;;;8.85;7.15;;;;;;;25.24;74.25;94094.50;5092832;28;20217;-80
2022/08/21 08:19:10;;;;;;;9.60;6.80;;;;;;;25.50;72.17;94095.59;5092576;28;20189;-79
2022/08/21 08:21:38;;;;;;;11.93;7.13;;;;;;;25.14;70.13;94093.59;5092822;28;20193;-80
2022/08/21 08:24:05;;;;;;;8.77;6.05;;;;;;;25.37;70.49;94090.72;5092613;28;20212;-81
2022/08/21 08:26:31;;;;;;;9.15;6.75;;;;;;;25.43;70.83;94095.00;5093317;28;20660;-79
2022/08/21 08:28:58;;;;;;;7.68;5.70;;;;;;;25.60;69.93;94081.81;5092898;28;20185;-79
2022/08/21 08:31:25;;;;;;;7.43;6.00;;;;;;;25.79;70.01;94092.00;5093035;28;20177;-79
2022/08/21 08:33:53;;;;;;;8.07;6.55;;;;;;;25.98;69.94;94095.84;5092494;28;20212;-79
2022/08/21 08:36:20;;;;;;;10.25;6.57;;;;;;;26.06;69.36;94092.78;5092734;28;20214;-79
2022/08/21 08:38:48;;;;;;;10.13;6.55;;;;;;;26.12;68.70;94099.66;5092778;28;20185;-80
2022/08/21 08:41:18;;;;;;;11.40;6.90;;;;;;;26.11;68.00;94092.03;5092839;28;20209;-80
2022/08/21 08:43:53;;;;;;;11.38;6.70;;;;;;;26.10;68.04;94096.50;5092573;28;20189;-80
2022/08/21 08:46:31;;;;;;;11.02;6.85;;;;;;;26.11;68.63;94102.50;5092621;28;20197;-79
2022/08/21 08:49:04;;;;;;;9.63;6.45;;;;;;;26.05;69.23;94090.41;5092134;28;20194;-80
2022/08/21 08:51:39;;;;;;;10.80;6.80;;;;;;;26.11;69.32;94105.13;5092708;28;20300;-79
2022/08/21 08:54:10;;;;;;;9.35;7.15;;;;;;;25.99;68.88;94076.47;5092269;28;20569;-79
2022/08/21 08:56:37;;;;;;;12.18;6.82;;;;;;;26.18;68.91;94092.63;5092533;28;20280;-80
2022/08/21 08:59:11;;;;;;;11.27;6.00;;;;;;;26.33;67.48;94094.56;5092123;28;20216;-80
2022/08/21 09:01:37;;;;;;;8.52;5.90;;;;;;;26.43;64.68;94098.09;5092190;28;20649;-80
2022/08/21 09:04:06;;;;;;;11.25;6.35;;;;;;;26.47;64.97;94083.47;5092144;28;20221;-79
2022/08/21 09:06:55;;;;;;;8.02;4.82;;;;;;;26.56;65.13;94078.53;5091967;28;20186;-80
2022/08/21 09:09:31;;;;;;;7.70;5.65;;;;;;;26.71;62.66;94083.88;5090732;28;20205;-79
2022/08/21 09:12:16;;;;;;;10.55;4.97;;;;;;;26.70;61.96;94081.50;5092054;28;20190;-80
2022/08/21 09:14:59;;;;;;;8.80;4.60;;;;;;;26.64;64.18;94064.97;5091824;28;20649;-79
2022/08/21 09:17:46;;;;;;;8.32;5.43;;;;;;;26.65;61.98;94073.63;5091442;28;20608;-79
2022/08/21 09:20:24;;;;;;;9.40;5.47;;;;;;;26.70;63.67;94073.63;5092016;28;20282;-79
2022/08/21 09:23:06;;;;;;;6.80;5.18;;;;;;;26.73;64.04;94071.31;5091547;28;20265;-79
2022/08/21 09:25:42;;;;;;;6.68;4.47;;;;;;;26.87;63.64;94071.63;5091630;28;20190;-79
2022/08/21 09:28:12;;;;;;;9.55;4.85;;;;;;;26.98;62.97;94070.63;5091735;28;20201;-79
2022/08/21 09:30:41;;;;;;;9.93;4.88;;;;;;;27.11;63.62;94066.00;5091807;28;20566;-79
2022/08/21 09:33:10;;;;;;;9.60;5.00;;;;;;;27.16;62.28;94051.09;5091927;28;20289;-79
2022/08/21 09:35:51;;;;;;;7.20;4.60;;;;;;;27.29;60.55;94056.88;5091470;28;20185;-80
2022/08/21 09:38:28;;;;;;;7.38;5.40;;;;;;;27.34;61.24;94065.59;5091592;28;20193;-79
2022/08/21 09:40:59;;;;;;;10.43;5.75;;;;;;;27.40;60.61;94061.13;5091337;28;20386;-79
2022/08/21 09:43:30;;;;;;;9.30;5.63;;;;;;;27.27;61.28;94054.53;5091416;28;20277;-79
2022/08/21 09:46:10;;;;;;;10.75;4.97;;;;;;;27.32;61.93;94054.53;5091487;28;20637;-80
2022/08/21 09:48:43;;;;;;;7.63;5.22;;;;;;;27.24;60.86;94055.81;5091563;28;20196;-80
2022/08/21 09:51:14;;;;;;;6.05;5.00;;;;;;;26.90;59.62;94062.44;5091024;28;20664;-80
2022/08/21 09:53:45;;;;;;;11.45;4.88;;;;;;;27.01;60.43;94061.47;5091417;28;20186;-81
2022/08/21 09:59:18;;;;;;;9.45;4.57;;;;;;;27.08;60.63;94056.78;5091120;28;20207;-80
2022/08/21 10:01:47;;;;;;;5.85;3.78;;;;;;;27.09;59.70;94047.91;5091218;28;20497;-80
2022/08/21 10:04:15;;;;;;;4.85;3.90;;;;;;;26.96;60.52;94041.25;5090472;28;20217;-80
2022/08/21 10:06:43;;;;;;;8.20;4.43;;;;;;;26.94;60.22;94043.34;5091375;28;20186;-81
2022/08/21 10:09:12;;;;;;;8.55;4.40;;;;;;;26.93;60.47;94041.75;5090939;28;20194;-81
2022/08/21 10:11:40;;;;;;;7.65;4.07;;;;;;;26.94;61.05;94039.91;5091156;28;20194;-80
2022/08/21 10:14:18;;;;;;;8.45;4.93;;;;;;;26.81;60.20;94009.66;5090966;28;20193;-81
2022/08/21 10:16:57;;;;;;;6.55;4.60;;;;;;;26.91;60.59;94035.97;5091025;28;20684;-79
2022/08/21 10:19:32;;;;;;;7.85;4.00;;;;;;;26.70;61.30;94011.47;5090400;28;20573;-82
2022/08/21 10:22:10;;;;;;;6.18;4.38;;;;;;;26.90;61.57;94028.34;5090982;28;20189;-80
2022/08/21 10:24:50;;;;;;;6.43;3.97;;;;;;;26.91;61.44;94016.81;5090349;28;20189;-81
2022/08/21 10:27:25;;;;;;;8.30;4.80;;;;;;;27.05;60.27;94019.75;5090330;28;20192;-81
2022/08/21 10:29:57;;;;;;;8.98;4.57;;;;;;;26.89;60.22;93982.94;5090868;28;20212;-81
2022/08/21 10:32:38;;;;;;;7.88;4.65;;;;;;;27.04;59.50;94008.47;5090458;28;20661;-82
2022/08/21 10:35:13;;;;;;;10.05;4.32;;;;;;;27.12;60.07;94022.97;5090222;28;20217;-82
2022/08/21 10:37:49;;;;;;;7.53;4.25;;;;;;;27.01;60.37;93990.59;5090162;28;20219;-79
2022/08/21 10:40:25;;;;;;;7.70;4.45;;;;;;;27.03;58.86;94014.78;5090689;28;20189;-81
2022/08/21 10:43:03;;;;;;;9.50;4.25;;;;;;;27.16;59.63;94016.13;5090076;28;20242;-80
2022/08/21 10:45:48;;;;;;;9.90;4.38;;;;;;;26.95;61.17;93989.81;5090645;28;20207;-79
2022/08/21 10:48:25;;;;;;;8.40;4.55;;;;;;;27.17;61.00;94008.03;5090170;28;20190;-79
2022/08/21 10:50:59;;;;;;;10.63;4.53;;;;;;;27.24;60.72;94007.78;5089835;28;20207;-82
2022/08/21 10:53:42;;;;;;;7.07;4.03;;;;;;;27.28;59.84;94008.84;5090065;28;20186;-82
2022/08/21 10:56:17;;;;;;;8.05;4.22;;;;;;;27.18;58.30;94004.34;5089850;28;20201;-82
2022/08/21 10:59:01;;;;;;;7.28;3.90;;;;;;;27.19;59.37;93981.50;5090077;28;20183;-81
2022/08/21 11:01:33;;;;;;;10.02;4.18;;;;;;;27.36;60.71;93997.03;5089747;28;20276;-80
2022/08/21 11:04:12;;;;;;;6.82;4.97;;;;;;;27.18;60.46;93995.69;5089771;28;20196;-81
2022/08/21 11:06:45;;;;;;;9.25;5.45;;;;;;;26.98;60.85;93973.53;5090320;28;20200;-82
2022/08/21 11:09:17;;;;;;;10.48;5.68;;;;;;;27.14;59.66;93987.53;5089768;28;20576;-80
2022/08/21 11:11:51;;;;;;;6.97;4.95;;;;;;;27.21;60.62;93976.81;5089824;28;20198;-80
2022/08/21 11:14:25;;;;;;;7.05;4.85;;;;;;;27.22;60.77;93967.88;5089458;28;20182;-81
2022/08/21 11:17:01;;;;;;;9.10;5.93;;;;;;;27.13;61.85;93974.69;5089821;28;20221;-81
2022/08/21 11:19:34;;;;;;;9.55;5.45;;;;;;;26.74;61.86;93954.03;5089669;28;20519;-80
2022/08/21 11:22:08;;;;;;;7.47;4.57;;;;;;;26.93;62.30;93963.03;5089966;28;20185;-82
2022/08/21 11:24:44;;;;;;;9.68;6.03;;;;;;;26.80;62.91;93970.56;5089440;28;20269;-83
2022/08/21 11:27:21;;;;;;;10.45;5.10;;;;;;;26.84;62.42;93964.56;5089775;28;20186;-81
2022/08/21 11:29:53;;;;;;;9.95;4.93;;;;;;;26.92;63.13;93964.06;5089767;28;20194;-80
2022/08/21 11:32:47;;;;;;;7.30;5.70;;;;;;;26.98;62.81;93960.41;5090472;28;20189;-79
2022/08/21 11:35:30;;;;;;;8.43;4.97;;;;;;;27.07;63.12;93965.16;5089949;28;20193;-79
2022/08/21 11:38:11;;;;;;;6.75;4.88;;;;;;;27.02;62.19;93940.47;5088678;28;20225;-79
2022/08/21 11:40:53;;;;;;;7.30;4.80;;;;;;;27.20;58.59;93965.50;5089526;28;20255;-80
2022/08/21 11:43:31;;;;;;;9.80;4.57;;;;;;;27.02;59.54;93942.31;5089034;28;20192;-81